Aviation Digital Data Service (ADDS)

Output produced by METARs form (0546 UTC 19 September 2014)
found at http://www.aviationweather.gov/adds/metars/
 
METAR text: KCMI 190453Z AUTO 07006KT 10SM CLR 12/09 A3013 RMK AO2 SLP200 T01170094
Conditions at: KCMI (CHAMPAIGN/URBANA, IL, US) observed 0453 UTC 19 September 2014
Temperature: 11.7°C (53°F)
Dewpoint: 9.4°C (49°F) [RH = 86%]
Pressure (altimeter): 30.13 inches Hg (1020.4 mb)
[Sea-level pressure: 1020.0 mb]
Winds: from the ENE (70 degrees) at 7 MPH (6 knots; 3.1 m/s)
Visibility: 10 or more miles (16+ km)
Ceiling: at least 12,000 feet AGL
Clouds: sky clear below 12,000 feet AGL
Weather: automated observation with no human augmentation;
there may or may not be significant weather present at this time

METAR text: KCMI 190353Z 07006KT 10SM CLR 12/09 A3012 RMK AO2 SLP197 T01170089
Conditions at: KCMI (CHAMPAIGN/URBANA, IL, US) observed 0353 UTC 19 September 2014
Temperature: 11.7°C (53°F)
Dewpoint: 8.9°C (48°F) [RH = 83%]
Pressure (altimeter): 30.12 inches Hg (1020.1 mb)
[Sea-level pressure: 1019.7 mb]
Winds: from the ENE (70 degrees) at 7 MPH (6 knots; 3.1 m/s)
Visibility: 10 or more miles (16+ km)
Ceiling: at least 12,000 feet AGL
Clouds: sky clear below 12,000 feet AGL
Weather: no significant weather observed at this time

Forecast for: KCMI (CHAMPAIGN/URBANA, IL, US)
Text: KCMI 190521Z 1906/2006 08005KT P6SM SKC
Forecast period: 0600 to 1500 UTC 19 September 2014
Forecast type: FROM: standard forecast or significant change
Winds: from the E (80 degrees) at 6 MPH (5 knots; 2.6 m/s)
Visibility: 6 or more miles (10+ km)
Clouds: clear skies
Weather: no significant weather forecast for this period
Text: FM191500 14009KT P6SM FEW040
Forecast period: 1500 UTC 19 September 2014 to 0000 UTC 20 September 2014
Forecast type: FROM: standard forecast or significant change
Winds: from the SE (140 degrees) at 10 MPH (9 knots; 4.7 m/s)
Visibility: 6 or more miles (10+ km)
Clouds: few clouds at 4000 feet AGL
Weather: no significant weather forecast for this period
Text: FM200000 17006KT P6SM BKN250
Forecast period: 0000 to 0600 UTC 20 September 2014
Forecast type: FROM: standard forecast or significant change
Winds: from the S (170 degrees) at 7 MPH (6 knots; 3.1 m/s)
Visibility: 6 or more miles (10+ km)
Ceiling: 25000 feet AGL
Clouds: broken clouds at 25000 feet AGL
Weather: no significant weather forecast for this period